sensor_id;sensor_type;location;lat;lon;timestamp;pressure;altitude;pressure_sealevel;temperature;humidity
21904;BME280;11116;51.554;7.812;2023-01-25T00:01:44;102649.91;;;20.81;44.85
21904;BME280;11116;51.554;7.812;2023-01-25T00:04:13;102640.19;;;20.80;44.83
21904;BME280;11116;51.554;7.812;2023-01-25T00:06:39;102643.69;;;20.81;44.87
21904;BME280;11116;51.554;7.812;2023-01-25T00:09:06;102637.31;;;20.82;44.77
21904;BME280;11116;51.554;7.812;2023-01-25T00:11:33;102641.00;;;20.81;44.70
21904;BME280;11116;51.554;7.812;2023-01-25T00:14:02;102640.19;;;20.80;44.70
21904;BME280;11116;51.554;7.812;2023-01-25T00:16:30;102642.00;;;20.80;44.72
21904;BME280;11116;51.554;7.812;2023-01-25T00:18:57;102635.78;;;20.79;44.86
21904;BME280;11116;51.554;7.812;2023-01-25T00:21:26;102636.78;;;20.78;44.72
21904;BME280;11116;51.554;7.812;2023-01-25T00:23:53;102630.41;;;20.79;44.70
21904;BME280;11116;51.554;7.812;2023-01-25T00:26:20;102630.25;;;20.81;44.98
21904;BME280;11116;51.554;7.812;2023-01-25T00:28:47;102629.56;;;20.79;44.98
21904;BME280;11116;51.554;7.812;2023-01-25T00:31:20;102628.19;;;20.75;44.87
21904;BME280;11116;51.554;7.812;2023-01-25T00:33:49;102627.16;;;20.76;45.14
21904;BME280;11116;51.554;7.812;2023-01-25T08:22:42;102427.47;;;19.65;45.33
21904;BME280;11116;51.554;7.812;2023-01-25T08:26:10;102428.63;;;19.72;44.90
21904;BME280;11116;51.554;7.812;2023-01-25T08:28:37;102432.44;;;19.69;45.16
21904;BME280;11116;51.554;7.812;2023-01-25T08:31:04;102424.38;;;19.69;44.99
21904;BME280;11116;51.554;7.812;2023-01-25T08:33:30;102422.84;;;19.67;45.02
21904;BME280;11116;51.554;7.812;2023-01-25T08:36:00;102417.44;;;19.77;45.13
21904;BME280;11116;51.554;7.812;2023-01-25T08:38:27;102415.59;;;19.77;44.96
21904;BME280;11116;51.554;7.812;2023-01-25T08:40:53;102416.75;;;19.84;44.75
21904;BME280;11116;51.554;7.812;2023-01-25T08:43:21;102418.84;;;19.81;45.00
21904;BME280;11116;51.554;7.812;2023-01-25T08:45:54;102408.56;;;19.76;45.04
21904;BME280;11116;51.554;7.812;2023-01-25T08:48:21;102411.53;;;19.73;45.11
21904;BME280;11116;51.554;7.812;2023-01-25T08:50:48;102407.00;;;19.73;45.18
21904;BME280;11116;51.554;7.812;2023-01-25T08:53:14;102411.25;;;19.76;45.62
21904;BME280;11116;51.554;7.812;2023-01-25T08:55:41;102416.63;;;19.76;45.60
21904;BME280;11116;51.554;7.812;2023-01-25T08:58:09;102410.13;;;19.79;45.47
21904;BME280;11116;51.554;7.812;2023-01-25T09:00:37;102412.69;;;19.70;45.36
21904;BME280;11116;51.554;7.812;2023-01-25T09:03:04;102396.31;;;19.54;45.06
21904;BME280;11116;51.554;7.812;2023-01-25T09:05:32;102411.81;;;19.70;45.78
21904;BME280;11116;51.554;7.812;2023-01-25T09:07:58;102407.16;;;19.82;45.29
21904;BME280;11116;51.554;7.812;2023-01-25T09:10:25;102405.44;;;19.90;44.90
21904;BME280;11116;51.554;7.812;2023-01-25T09:12:52;102396.22;;;20.02;44.73
21904;BME280;11116;51.554;7.812;2023-01-25T09:15:18;102392.31;;;20.24;44.44
21904;BME280;11116;51.554;7.812;2023-01-25T09:17:48;102392.09;;;20.45;44.45
21904;BME280;11116;51.554;7.812;2023-01-25T09:20:15;102392.00;;;20.64;44.59
21904;BME280;11116;51.554;7.812;2023-01-25T09:22:42;102389.34;;;20.81;44.39
21904;BME280;11116;51.554;7.812;2023-01-25T09:25:09;102382.44;;;20.97;44.18
21904;BME280;11116;51.554;7.812;2023-01-25T09:27:35;102380.00;;;21.03;44.13
21904;BME280;11116;51.554;7.812;2023-01-25T09:30:02;102379.56;;;21.08;44.06
21904;BME280;11116;51.554;7.812;2023-01-25T09:32:29;102377.41;;;21.11;44.00
21904;BME280;11116;51.554;7.812;2023-01-25T09:34:57;102371.72;;;21.14;44.07
21904;BME280;11116;51.554;7.812;2023-01-25T09:37:23;102374.59;;;21.13;44.11
21904;BME280;11116;51.554;7.812;2023-01-25T09:39:50;102363.97;;;21.11;44.11
21904;BME280;11116;51.554;7.812;2023-01-25T09:42:29;102370.34;;;21.10;44.09
21904;BME280;11116;51.554;7.812;2023-01-25T09:45:10;102363.44;;;21.08;44.18
21904;BME280;11116;51.554;7.812;2023-01-25T09:47:41;102357.47;;;21.04;44.28
21904;BME280;11116;51.554;7.812;2023-01-25T09:50:16;102362.34;;;21.01;44.17
21904;BME280;11116;51.554;7.812;2023-01-25T09:52:49;102355.56;;;20.97;44.38
21904;BME280;11116;51.554;7.812;2023-01-25T09:55:23;102364.13;;;20.92;44.20
21904;BME280;11116;51.554;7.812;2023-01-25T09:57:52;102363.56;;;20.89;44.29
21904;BME280;11116;51.554;7.812;2023-01-25T10:00:22;102363.88;;;20.85;44.39
21904;BME280;11116;51.554;7.812;2023-01-25T10:02:52;102361.63;;;20.81;44.80
21904;BME280;11116;51.554;7.812;2023-01-25T10:05:22;102364.78;;;20.76;44.75
21904;BME280;11116;51.554;7.812;2023-01-25T10:07:53;102350.13;;;20.71;45.12
21904;BME280;11116;51.554;7.812;2023-01-25T10:10:23;102354.94;;;20.67;45.01
21904;BME280;11116;51.554;7.812;2023-01-25T10:12:52;102361.63;;;20.63;45.26
21904;BME280;11116;51.554;7.812;2023-01-25T10:15:19;102347.66;;;20.60;45.56
21904;BME280;11116;51.554;7.812;2023-01-25T10:17:47;102356.56;;;20.60;45.90
21904;BME280;11116;51.554;7.812;2023-01-25T10:20:25;102348.63;;;20.59;45.46
21904;BME280;11116;51.554;7.812;2023-01-25T10:22:57;102342.34;;;20.50;45.51
21904;BME280;11116;51.554;7.812;2023-01-25T10:25:28;102347.75;;;20.41;45.70
21904;BME280;11116;51.554;7.812;2023-01-25T10:28:14;102337.22;;;20.29;45.73
21904;BME280;11116;51.554;7.812;2023-01-25T10:30:46;102347.53;;;20.24;45.58
21904;BME280;11116;51.554;7.812;2023-01-25T10:33:17;102339.50;;;20.24;45.81
21904;BME280;11116;51.554;7.812;2023-01-25T10:35:46;102335.09;;;20.23;45.67
21904;BME280;11116;51.554;7.812;2023-01-25T10:38:14;102325.22;;;20.24;45.32
21904;BME280;11116;51.554;7.812;2023-01-25T10:40:44;102319.44;;;20.28;45.33
21904;BME280;11116;51.554;7.812;2023-01-25T10:43:13;102324.34;;;20.33;45.42
21904;BME280;11116;51.554;7.812;2023-01-25T10:45:40;102323.59;;;20.41;45.62
21904;BME280;11116;51.554;7.812;2023-01-25T10:48:11;102317.75;;;20.27;45.31
21904;BME280;11116;51.554;7.812;2023-01-25T10:50:48;102305.03;;;19.93;44.88
21904;BME280;11116;51.554;7.812;2023-01-25T10:56:05;102301.72;;;20.36;44.81
21904;BME280;11116;51.554;7.812;2023-01-25T10:58:37;102289.31;;;20.52;44.15
21904;BME280;11116;51.554;7.812;2023-01-25T11:01:04;102289.72;;;20.57;44.52
21904;BME280;11116;51.554;7.812;2023-01-25T11:03:33;102278.38;;;20.63;44.36
21904;BME280;11116;51.554;7.812;2023-01-25T11:06:01;102282.97;;;20.71;45.03
21904;BME280;11116;51.554;7.812;2023-01-25T11:08:31;102277.59;;;20.71;44.93
21904;BME280;11116;51.554;7.812;2023-01-25T11:10:58;102286.81;;;20.68;45.17
21904;BME280;11116;51.554;7.812;2023-01-25T11:13:25;102279.06;;;20.65;45.08
21904;BME280;11116;51.554;7.812;2023-01-25T11:15:52;102281.75;;;20.65;45.36
21904;BME280;11116;51.554;7.812;2023-01-25T11:18:20;102273.84;;;20.64;45.28
21904;BME280;11116;51.554;7.812;2023-01-25T11:20:47;102274.00;;;20.62;45.30
21904;BME280;11116;51.554;7.812;2023-01-25T11:23:29;102267.94;;;20.60;45.47
21904;BME280;11116;51.554;7.812;2023-01-25T11:26:09;102262.34;;;20.54;45.42
21904;BME280;11116;51.554;7.812;2023-01-25T11:28:36;102263.50;;;20.51;45.38
21904;BME280;11116;51.554;7.812;2023-01-25T11:31:04;102249.53;;;20.48;45.27
21904;BME280;11116;51.554;7.812;2023-01-25T11:33:34;102244.75;;;20.42;45.54
21904;BME280;11116;51.554;7.812;2023-01-25T11:36:07;102231.63;;;20.39;45.12
21904;BME280;11116;51.554;7.812;2023-01-25T11:38:36;102229.44;;;20.34;45.59
21904;BME280;11116;51.554;7.812;2023-01-25T11:41:06;102220.91;;;20.39;45.17
21904;BME280;11116;51.554;7.812;2023-01-25T11:43:43;102214.13;;;20.35;45.24
21904;BME280;11116;51.554;7.812;2023-01-25T11:46:17;102209.78;;;20.34;45.26
21904;BME280;11116;51.554;7.812;2023-01-25T11:48:50;102203.88;;;20.30;45.50
21904;BME280;11116;51.554;7.812;2023-01-25T11:51:21;102192.28;;;20.29;45.37
21904;BME280;11116;51.554;7.812;2023-01-25T11:56:43;102188.75;;;20.29;45.73
21904;BME280;11116;51.554;7.812;2023-01-25T11:59:19;102188.31;;;20.34;45.81
21904;BME280;11116;51.554;7.812;2023-01-25T12:01:54;102177.50;;;20.25;45.84
21904;BME280;11116;51.554;7.812;2023-01-25T12:04:36;102171.41;;;20.23;45.58
21904;BME280;11116;51.554;7.812;2023-01-25T12:07:07;102162.13;;;20.18;45.23
21904;BME280;11116;51.554;7.812;2023-01-25T12:09:41;102153.38;;;20.16;44.41
21904;BME280;11116;51.554;7.812;2023-01-25T12:12:17;102141.50;;;20.18;44.05
21904;BME280;11116;51.554;7.812;2023-01-25T12:14:54;102130.59;;;20.20;43.69
21904;BME280;11116;51.554;7.812;2023-01-25T12:17:25;102129.47;;;20.22;43.25
21904;BME280;11116;51.554;7.812;2023-01-25T12:22:45;102107.44;;;20.28;42.42
21904;BME280;11116;51.554;7.812;2023-01-25T12:25:19;102102.75;;;20.31;42.41
21904;BME280;11116;51.554;7.812;2023-01-25T12:27:53;102090.00;;;20.33;42.00
21904;BME280;11116;51.554;7.812;2023-01-25T12:30:22;102087.16;;;20.34;41.71
21904;BME280;11116;51.554;7.812;2023-01-25T12:32:54;102073.75;;;20.34;41.57
21904;BME280;11116;51.554;7.812;2023-01-25T12:35:24;102064.31;;;20.30;41.48
21904;BME280;11116;51.554;7.812;2023-01-25T12:37:54;102055.72;;;20.26;41.31
21904;BME280;11116;51.554;7.812;2023-01-25T12:40:24;102053.88;;;20.27;41.11
21904;BME280;11116;51.554;7.812;2023-01-25T12:42:56;102046.00;;;20.25;41.09
21904;BME280;11116;51.554;7.812;2023-01-25T12:45:24;102039.78;;;20.25;41.23
21904;BME280;11116;51.554;7.812;2023-01-25T12:47:54;102035.28;;;20.25;41.30
21904;BME280;11116;51.554;7.812;2023-01-25T12:50:22;102035.56;;;20.22;41.73
21904;BME280;11116;51.554;7.812;2023-01-25T12:52:51;102022.97;;;20.23;41.36
21904;BME280;11116;51.554;7.812;2023-01-25T12:55:19;102018.06;;;20.18;41.42
21904;BME280;11116;51.554;7.812;2023-01-25T12:57:47;102005.97;;;20.14;41.40
21904;BME280;11116;51.554;7.812;2023-01-25T13:00:19;101999.47;;;20.17;41.68
21904;BME280;11116;51.554;7.812;2023-01-25T13:02:59;101986.09;;;19.99;40.82
21904;BME280;11116;51.554;7.812;2023-01-25T13:05:28;101968.31;;;19.81;39.84
21904;BME280;11116;51.554;7.812;2023-01-25T13:08:08;101950.94;;;19.67;39.22
21904;BME280;11116;51.554;7.812;2023-01-25T13:10:38;101939.69;;;19.63;38.33
21904;BME280;11116;51.554;7.812;2023-01-25T13:13:17;101925.19;;;19.56;38.10
21904;BME280;11116;51.554;7.812;2023-01-25T13:15:46;101913.66;;;19.56;37.63
21904;BME280;11116;51.554;7.812;2023-01-25T13:18:33;101913.84;;;19.80;37.99
21904;BME280;11116;51.554;7.812;2023-01-25T13:21:00;101920.22;;;20.05;37.91
21904;BME280;11116;51.554;7.812;2023-01-25T13:23:29;101916.44;;;20.15;37.98
21904;BME280;11116;51.554;7.812;2023-01-25T13:28:42;101919.28;;;20.40;38.12
21904;BME280;11116;51.554;7.812;2023-01-25T13:31:21;101919.00;;;20.51;38.03
21904;BME280;11116;51.554;7.812;2023-01-25T13:34:07;101925.06;;;20.61;38.21
21904;BME280;11116;51.554;7.812;2023-01-25T13:36:43;101922.59;;;20.67;38.39
21904;BME280;11116;51.554;7.812;2023-01-25T13:41:56;101911.03;;;20.75;38.84
21904;BME280;11116;51.554;7.812;2023-01-25T13:44:23;101912.72;;;20.76;38.96
21904;BME280;11116;51.554;7.812;2023-01-25T13:46:53;101917.09;;;20.77;39.11
21904;BME280;11116;51.554;7.812;2023-01-25T13:49:22;101917.78;;;20.87;39.84
21904;BME280;11116;51.554;7.812;2023-01-25T13:51:49;101925.16;;;20.77;39.90
21904;BME280;11116;51.554;7.812;2023-01-25T13:54:16;101926.47;;;20.73;39.98
21904;BME280;11116;51.554;7.812;2023-01-25T13:56:42;101930.31;;;20.70;40.59
21904;BME280;11116;51.554;7.812;2023-01-25T13:59:22;101925.44;;;20.66;40.44
21904;BME280;11116;51.554;7.812;2023-01-25T14:01:48;101925.13;;;20.69;40.47
21904;BME280;11116;51.554;7.812;2023-01-25T14:04:17;101920.75;;;20.68;40.76
21904;BME280;11116;51.554;7.812;2023-01-25T14:06:43;101912.69;;;20.68;40.65
21904;BME280;11116;51.554;7.812;2023-01-25T14:09:11;101916.53;;;20.65;41.03
21904;BME280;11116;51.554;7.812;2023-01-25T14:11:42;101920.41;;;20.63;41.27
21904;BME280;11116;51.554;7.812;2023-01-25T14:14:16;101915.34;;;20.60;41.47
21904;BME280;11116;51.554;7.812;2023-01-25T14:16:44;101920.19;;;20.56;41.67
21904;BME280;11116;51.554;7.812;2023-01-25T14:19:22;101913.44;;;20.52;41.52
21904;BME280;11116;51.554;7.812;2023-01-25T14:21:49;101917.31;;;20.50;41.96
21904;BME280;11116;51.554;7.812;2023-01-25T14:24:16;101917.63;;;20.47;42.20
21904;BME280;11116;51.554;7.812;2023-01-25T14:26:42;101909.88;;;20.44;42.29
21904;BME280;11116;51.554;7.812;2023-01-25T14:29:15;101905.53;;;20.43;42.17
21904;BME280;11116;51.554;7.812;2023-01-25T14:31:42;101909.22;;;20.42;42.34
21904;BME280;11116;51.554;7.812;2023-01-25T14:34:13;101908.53;;;20.40;42.51
21904;BME280;11116;51.554;7.812;2023-01-25T14:36:43;101909.41;;;20.40;42.61
21904;BME280;11116;51.554;7.812;2023-01-25T14:39:12;101899.78;;;20.38;42.81
21904;BME280;11116;51.554;7.812;2023-01-25T14:41:40;101906.19;;;20.37;42.66
21904;BME280;11116;51.554;7.812;2023-01-25T14:44:10;101916.91;;;20.37;42.88
21904;BME280;11116;51.554;7.812;2023-01-25T14:46:38;101901.38;;;20.48;42.83
21904;BME280;11116;51.554;7.812;2023-01-25T14:49:05;101911.91;;;20.42;43.01
21904;BME280;11116;51.554;7.812;2023-01-25T14:51:32;101908.06;;;20.44;42.64
21904;BME280;11116;51.554;7.812;2023-01-25T14:54:01;101914.94;;;20.47;43.08
21904;BME280;11116;51.554;7.812;2023-01-25T14:56:33;101909.44;;;20.48;43.10
21904;BME280;11116;51.554;7.812;2023-01-25T14:59:00;101899.84;;;20.46;42.79
21904;BME280;11116;51.554;7.812;2023-01-25T15:01:35;101896.66;;;20.50;42.56
21904;BME280;11116;51.554;7.812;2023-01-25T15:04:02;101889.16;;;20.54;42.74
21904;BME280;11116;51.554;7.812;2023-01-25T15:06:29;101890.47;;;20.58;42.79
21904;BME280;11116;51.554;7.812;2023-01-25T15:08:55;101883.97;;;20.60;42.84
21904;BME280;11116;51.554;7.812;2023-01-25T15:11:30;101887.00;;;20.65;42.69
21904;BME280;11116;51.554;7.812;2023-01-25T15:14:03;101884.84;;;20.69;42.54
21904;BME280;11116;51.554;7.812;2023-01-25T15:16:39;101871.41;;;20.69;42.53
21904;BME280;11116;51.554;7.812;2023-01-25T15:19:19;101873.06;;;20.70;42.48
21904;BME280;11116;51.554;7.812;2023-01-25T15:21:45;101866.84;;;20.69;42.52
21904;BME280;11116;51.554;7.812;2023-01-25T15:24:13;101875.94;;;20.68;42.30
21904;BME280;11116;51.554;7.812;2023-01-25T15:26:41;101855.63;;;20.66;42.33
21904;BME280;11116;51.554;7.812;2023-01-25T15:29:11;101860.16;;;20.65;42.47
21904;BME280;11116;51.554;7.812;2023-01-25T15:31:38;101855.94;;;20.63;42.67
21904;BME280;11116;51.554;7.812;2023-01-25T15:34:05;101853.59;;;20.60;42.55
21904;BME280;11116;51.554;7.812;2023-01-25T15:36:32;101852.22;;;20.56;42.64
21904;BME280;11116;51.554;7.812;2023-01-25T15:38:58;101851.56;;;20.54;42.63
21904;BME280;11116;51.554;7.812;2023-01-25T15:41:25;101850.19;;;20.50;42.78
21904;BME280;11116;51.554;7.812;2023-01-25T15:43:53;101857.56;;;20.48;42.86
21904;BME280;11116;51.554;7.812;2023-01-25T15:46:20;101850.84;;;20.44;43.08
21904;BME280;11116;51.554;7.812;2023-01-25T15:48:48;101852.84;;;20.42;42.77
21904;BME280;11116;51.554;7.812;2023-01-25T15:51:15;101851.47;;;20.38;43.00
21904;BME280;11116;51.554;7.812;2023-01-25T15:53:41;101836.53;;;20.35;43.00
21904;BME280;11116;51.554;7.812;2023-01-25T15:56:10;101830.66;;;20.32;43.17
21904;BME280;11116;51.554;7.812;2023-01-25T15:58:39;101826.31;;;20.31;42.98
21904;BME280;11116;51.554;7.812;2023-01-25T16:01:07;101825.47;;;20.30;42.89
21904;BME280;11116;51.554;7.812;2023-01-25T16:03:34;101816.88;;;20.26;42.95
21904;BME280;11116;51.554;7.812;2023-01-25T16:06:01;101824.47;;;20.31;42.92
21904;BME280;11116;51.554;7.812;2023-01-25T16:08:28;101826.13;;;20.32;42.81
21904;BME280;11116;51.554;7.812;2023-01-25T16:10:55;101829.50;;;20.34;43.15
21904;BME280;11116;51.554;7.812;2023-01-25T16:13:21;101829.34;;;20.36;42.86
21904;BME280;11116;51.554;7.812;2023-01-25T16:15:50;101826.50;;;20.37;43.03
21904;BME280;11116;51.554;7.812;2023-01-25T16:18:18;101825.16;;;20.41;42.99
21904;BME280;11116;51.554;7.812;2023-01-25T16:20:45;101825.69;;;20.45;43.09
21904;BME280;11116;51.554;7.812;2023-01-25T16:23:11;101831.25;;;20.51;43.07
21904;BME280;11116;51.554;7.812;2023-01-25T16:25:38;101832.59;;;20.55;43.24
21904;BME280;11116;51.554;7.812;2023-01-25T16:28:04;101827.06;;;20.57;43.06
21904;BME280;11116;51.554;7.812;2023-01-25T16:30:31;101827.59;;;20.60;43.25
21904;BME280;11116;51.554;7.812;2023-01-25T16:32:58;101829.25;;;20.61;43.04
21904;BME280;11116;51.554;7.812;2023-01-25T16:35:26;101827.75;;;20.67;43.13
21904;BME280;11116;51.554;7.812;2023-01-25T16:37:53;101826.44;;;20.71;42.87
21904;BME280;11116;51.554;7.812;2023-01-25T16:40:20;101818.69;;;20.68;42.98
21904;BME280;11116;51.554;7.812;2023-01-25T16:42:47;101819.03;;;20.65;43.01
21904;BME280;11116;51.554;7.812;2023-01-25T16:45:14;101821.56;;;20.66;42.84
21904;BME280;11116;51.554;7.812;2023-01-25T16:47:43;101813.66;;;20.65;42.76
21904;BME280;11116;51.554;7.812;2023-01-25T16:50:10;101811.16;;;20.63;42.95
21904;BME280;11116;51.554;7.812;2023-01-25T16:52:39;101801.22;;;20.64;42.61
21904;BME280;11116;51.554;7.812;2023-01-25T16:55:07;101797.72;;;20.63;42.77
21904;BME280;11116;51.554;7.812;2023-01-25T16:57:35;101798.72;;;20.62;42.60
21904;BME280;11116;51.554;7.812;2023-01-25T17:00:02;101795.84;;;20.64;42.56
21904;BME280;11116;51.554;7.812;2023-01-25T17:02:29;101807.63;;;20.63;42.58
21904;BME280;11116;51.554;7.812;2023-01-25T17:04:56;101804.09;;;20.62;42.75
21904;BME280;11116;51.554;7.812;2023-01-25T17:07:22;101798.72;;;20.62;42.61
21904;BME280;11116;51.554;7.812;2023-01-25T17:09:50;101797.03;;;20.61;42.69
21904;BME280;11116;51.554;7.812;2023-01-25T17:12:16;101786.28;;;20.61;42.61
21904;BME280;11116;51.554;7.812;2023-01-25T17:14:43;101786.47;;;20.60;42.72
21904;BME280;11116;51.554;7.812;2023-01-25T17:17:09;101784.78;;;20.59;42.85
21904;BME280;11116;51.554;7.812;2023-01-25T17:19:36;101784.78;;;20.59;42.70
21904;BME280;11116;51.554;7.812;2023-01-25T17:22:03;101783.09;;;20.58;42.74
21904;BME280;11116;51.554;7.812;2023-01-25T17:24:29;101785.94;;;20.56;42.73
21904;BME280;11116;51.554;7.812;2023-01-25T17:26:57;101786.09;;;20.55;42.67
21904;BME280;11116;51.554;7.812;2023-01-25T17:29:25;101779.91;;;20.54;42.58
21904;BME280;11116;51.554;7.812;2023-01-25T17:31:53;101780.06;;;20.53;42.91
21904;BME280;11116;51.554;7.812;2023-01-25T17:34:20;101778.41;;;20.52;42.69
21904;BME280;11116;51.554;7.812;2023-01-25T17:36:47;101775.88;;;20.50;42.96
21904;BME280;11116;51.554;7.812;2023-01-25T17:39:14;101771.50;;;20.49;42.54
21904;BME280;11116;51.554;7.812;2023-01-25T17:41:41;101777.72;;;20.50;42.60
21904;BME280;11116;51.554;7.812;2023-01-25T17:44:10;101768.66;;;20.51;42.57
21904;BME280;11116;51.554;7.812;2023-01-25T17:46:36;101767.81;;;20.50;42.60
21904;BME280;11116;51.554;7.812;2023-01-25T17:49:04;101757.91;;;20.51;42.52
21904;BME280;11116;51.554;7.812;2023-01-25T17:51:31;101758.59;;;20.53;42.55
21904;BME280;11116;51.554;7.812;2023-01-25T17:53:59;101759.63;;;20.52;42.45
21904;BME280;11116;51.554;7.812;2023-01-25T17:56:26;101754.25;;;20.52;42.73
21904;BME280;11116;51.554;7.812;2023-01-25T17:58:54;101757.59;;;20.54;42.58
21904;BME280;11116;51.554;7.812;2023-01-25T18:01:23;101762.97;;;20.54;42.66
21904;BME280;11116;51.554;7.812;2023-01-25T18:03:52;101764.63;;;20.55;42.72
21904;BME280;11116;51.554;7.812;2023-01-25T18:06:20;101771.88;;;20.54;42.64
21904;BME280;11116;51.554;7.812;2023-01-25T18:08:50;101770.84;;;20.55;42.73
21904;BME280;11116;51.554;7.812;2023-01-25T18:11:18;101773.69;;;20.54;42.72
21904;BME280;11116;51.554;7.812;2023-01-25T18:13:46;101773.69;;;20.54;42.66
21904;BME280;11116;51.554;7.812;2023-01-25T18:16:13;101768.47;;;20.52;42.67
21904;BME280;11116;51.554;7.812;2023-01-25T18:18:43;101763.28;;;20.51;42.84
21904;BME280;11116;51.554;7.812;2023-01-25T18:21:11;101758.91;;;20.50;42.97
21904;BME280;11116;51.554;7.812;2023-01-25T18:23:39;101758.91;;;20.50;42.83
21904;BME280;11116;51.554;7.812;2023-01-25T18:26:13;101751.03;;;20.48;42.90
21904;BME280;11116;51.554;7.812;2023-01-25T18:28:42;101751.03;;;20.48;43.22
21904;BME280;11116;51.554;7.812;2023-01-25T18:31:09;101747.50;;;20.48;42.86
21904;BME280;11116;51.554;7.812;2023-01-25T18:33:36;101738.13;;;20.52;43.03
21904;BME280;11116;51.554;7.812;2023-01-25T18:36:05;101738.47;;;20.49;43.14
21904;BME280;11116;51.554;7.812;2023-01-25T18:38:33;101735.28;;;20.53;42.88
21904;BME280;11116;51.554;7.812;2023-01-25T18:41:01;101735.59;;;20.50;43.11
21904;BME280;11116;51.554;7.812;2023-01-25T18:43:29;101733.91;;;20.49;42.95
21904;BME280;11116;51.554;7.812;2023-01-25T18:45:57;101731.59;;;20.54;43.09
21904;BME280;11116;51.554;7.812;2023-01-25T18:48:25;101733.94;;;20.57;43.05
21904;BME280;11116;51.554;7.812;2023-01-25T18:50:54;101727.72;;;20.57;43.29
21904;BME280;11116;51.554;7.812;2023-01-25T18:53:22;101728.41;;;20.59;43.28
21904;BME280;11116;51.554;7.812;2023-01-25T18:55:59;101727.06;;;20.63;43.33
21904;BME280;11116;51.554;7.812;2023-01-25T18:58:27;101731.09;;;20.67;43.25
21904;BME280;11116;51.554;7.812;2023-01-25T19:00:59;101725.03;;;20.73;43.61
21904;BME280;11116;51.554;7.812;2023-01-25T19:03:25;101717.69;;;20.75;43.29
21904;BME280;11116;51.554;7.812;2023-01-25T19:05:53;101719.84;;;20.79;43.58
21904;BME280;11116;51.554;7.812;2023-01-25T19:08:19;101714.28;;;20.81;43.44
21904;BME280;11116;51.554;7.812;2023-01-25T19:10:47;101702.41;;;20.83;43.40
21904;BME280;11116;51.554;7.812;2023-01-25T19:13:14;101710.13;;;20.87;43.36
21904;BME280;11116;51.554;7.812;2023-01-25T19:15:40;101705.22;;;20.90;43.53
21904;BME280;11116;51.554;7.812;2023-01-25T19:18:07;101704.06;;;20.93;43.59
21904;BME280;11116;51.554;7.812;2023-01-25T19:20:33;101691.31;;;20.95;43.62
21904;BME280;11116;51.554;7.812;2023-01-25T19:23:00;101683.94;;;20.89;43.34
21904;BME280;11116;51.554;7.812;2023-01-25T19:25:27;101681.41;;;20.87;43.29
21904;BME280;11116;51.554;7.812;2023-01-25T19:27:56;101672.88;;;20.83;43.30
21904;BME280;11116;51.554;7.812;2023-01-25T19:30:22;101679.38;;;20.81;43.67
21904;BME280;11116;51.554;7.812;2023-01-25T19:32:49;101677.06;;;20.78;43.64
21904;BME280;11116;51.554;7.812;2023-01-25T19:35:15;101665.81;;;20.74;43.43
21904;BME280;11116;51.554;7.812;2023-01-25T19:37:42;101665.13;;;20.72;43.31
21904;BME280;11116;51.554;7.812;2023-01-25T19:40:09;101661.28;;;20.75;43.30
21904;BME280;11116;51.554;7.812;2023-01-25T19:42:35;101656.06;;;20.73;43.46
21904;BME280;11116;51.554;7.812;2023-01-25T19:45:04;101656.25;;;20.72;43.23
21904;BME280;11116;51.554;7.812;2023-01-25T19:47:31;101654.38;;;20.72;43.57
21904;BME280;11116;51.554;7.812;2023-01-25T19:49:57;101644.66;;;20.71;43.51
21904;BME280;11116;51.554;7.812;2023-01-25T19:52:26;101636.09;;;20.68;43.34
21904;BME280;11116;51.554;7.812;2023-01-25T19:54:53;101636.28;;;20.66;43.45
21904;BME280;11116;51.554;7.812;2023-01-25T19:57:19;101629.56;;;20.70;43.38
21904;BME280;11116;51.554;7.812;2023-01-25T19:59:46;101625.88;;;20.71;43.48
21904;BME280;11116;51.554;7.812;2023-01-25T20:02:14;101623.00;;;20.73;43.55
21904;BME280;11116;51.554;7.812;2023-01-25T20:04:40;101607.06;;;20.71;43.40
21904;BME280;11116;51.554;7.812;2023-01-25T20:07:07;101615.13;;;20.71;43.49
21904;BME280;11116;51.554;7.812;2023-01-25T20:09:33;101601.00;;;20.69;43.67
21904;BME280;11116;51.554;7.812;2023-01-25T20:12:00;101608.91;;;20.71;43.53
21904;BME280;11116;51.554;7.812;2023-01-25T20:14:32;101600.00;;;20.70;43.31
21904;BME280;11116;51.554;7.812;2023-01-25T20:16:58;101603.69;;;20.69;43.25
21904;BME280;11116;51.554;7.812;2023-01-25T20:19:26;101600.84;;;20.71;43.19
21904;BME280;11116;51.554;7.812;2023-01-25T20:21:53;101605.22;;;20.72;43.06
21904;BME280;11116;51.554;7.812;2023-01-25T20:24:19;101606.03;;;20.72;43.50
21904;BME280;11116;51.554;7.812;2023-01-25T20:26:46;101606.88;;;20.73;43.41
21904;BME280;11116;51.554;7.812;2023-01-25T20:29:13;101610.75;;;20.70;43.11
21904;BME280;11116;51.554;7.812;2023-01-25T20:31:40;101620.84;;;20.68;43.26
21904;BME280;11116;51.554;7.812;2023-01-25T20:34:09;101610.25;;;20.67;43.43
21904;BME280;11116;51.554;7.812;2023-01-25T20:36:37;101607.22;;;20.70;43.34
21904;BME280;11116;51.554;7.812;2023-01-25T20:39:04;101609.56;;;20.73;43.43
21904;BME280;11116;51.554;7.812;2023-01-25T20:41:31;101598.69;;;20.74;43.64
21904;BME280;11116;51.554;7.812;2023-01-25T20:43:58;101603.88;;;20.76;43.72
21904;BME280;11116;51.554;7.812;2023-01-25T20:46:26;101602.88;;;20.77;43.88
21904;BME280;11116;51.554;7.812;2023-01-25T20:48:53;101607.41;;;20.76;43.76
21904;BME280;11116;51.554;7.812;2023-01-25T20:51:20;101601.19;;;20.76;43.81
21904;BME280;11116;51.554;7.812;2023-01-25T20:53:49;101598.50;;;20.76;43.74
21904;BME280;11116;51.554;7.812;2023-01-25T20:56:18;101601.19;;;20.76;43.90
21904;BME280;11116;51.554;7.812;2023-01-25T20:58:44;101597.66;;;20.75;43.70
21904;BME280;11116;51.554;7.812;2023-01-25T21:01:15;101599.34;;;20.76;43.77